createdAt,value
2018-04-01T00:00:36.853Z,0.00
2018-04-01T00:01:37.003Z,0.00
2018-04-01T00:02:37.176Z,0.00
2018-04-01T00:03:37.323Z,0.00
2018-04-01T00:04:37.472Z,0.00
2018-04-01T00:05:37.629Z,0.00
2018-04-01T00:06:37.785Z,0.00
2018-04-01T00:07:37.924Z,0.00
2018-04-01T00:08:38.068Z,0.00
2018-04-01T00:09:38.209Z,0.00
2018-04-01T00:10:38.353Z,0.00
2018-04-01T00:11:38.500Z,0.00
2018-04-01T00:12:38.641Z,0.00
2018-04-01T00:13:38.783Z,0.00
2018-04-01T00:14:38.931Z,0.00
2018-04-01T00:15:39.079Z,0.00
2018-04-01T00:16:39.224Z,0.00
2018-04-01T00:17:39.374Z,0.00
2018-04-01T00:18:39.518Z,0.00
2018-04-01T00:19:39.665Z,0.00
2018-04-01T00:20:39.893Z,0.00
2018-04-01T00:21:39.998Z,0.00
2018-04-01T00:22:40.141Z,0.00
2018-04-01T00:23:40.287Z,0.00
2018-04-01T00:24:40.431Z,0.00
2018-04-01T00:25:40.578Z,0.00
2018-04-01T00:26:40.723Z,0.00
2018-04-01T00:27:40.873Z,0.00
2018-04-01T00:28:41.017Z,0.00
2018-04-01T00:29:41.168Z,0.00
2018-04-01T00:30:41.307Z,0.00
2018-04-01T00:31:41.455Z,0.00
2018-04-01T00:32:41.602Z,0.00
2018-04-01T00:33:41.746Z,0.00
2018-04-01T00:34:41.890Z,0.00
2018-04-01T00:35:42.036Z,0.00
2018-04-01T00:36:42.182Z,0.00
2018-04-01T00:37:42.325Z,0.00
2018-04-01T00:38:42.473Z,0.00
2018-04-01T00:39:42.618Z,0.00
2018-04-01T00:40:42.761Z,0.00
2018-04-01T00:41:42.908Z,0.00
2018-04-01T00:42:43.056Z,0.00
2018-04-01T00:43:43.197Z,0.00
2018-04-01T00:44:43.339Z,0.00
2018-04-01T00:45:43.486Z,0.00
2018-04-01T00:46:43.631Z,0.00
2018-04-01T00:47:43.786Z,0.00
2018-04-01T00:48:43.923Z,0.00
2018-04-01T00:49:44.065Z,0.00
2018-04-01T00:50:44.210Z,0.00
2018-04-01T00:51:44.357Z,0.00
2018-04-01T00:52:44.500Z,0.00
2018-04-01T00:53:44.646Z,0.00
2018-04-01T00:54:44.792Z,0.00
2018-04-01T00:55:44.938Z,0.00
2018-04-01T00:56:45.106Z,0.00
2018-04-01T00:57:45.222Z,0.00
2018-04-01T00:58:45.368Z,0.00
2018-04-01T00:59:45.513Z,0.00
2018-04-01T01:00:45.664Z,0.00
2018-04-01T01:01:45.802Z,0.00
2018-04-01T01:02:45.950Z,0.00
2018-04-01T01:03:46.096Z,0.00
2018-04-01T01:04:46.241Z,0.00
2018-04-01T01:05:46.387Z,0.00
2018-04-01T01:06:46.531Z,0.00
2018-04-01T01:07:46.681Z,0.00
2018-04-01T01:08:46.821Z,0.00
2018-04-01T01:09:46.970Z,0.00
2018-04-01T01:10:47.117Z,0.00
2018-04-01T01:11:47.260Z,0.00
2018-04-01T01:12:47.403Z,0.00
2018-04-01T01:13:47.549Z,0.00
2018-04-01T01:14:47.693Z,0.00
2018-04-01T01:15:47.842Z,0.00
2018-04-01T01:16:47.985Z,0.00
2018-04-01T01:17:48.129Z,0.00
2018-04-01T01:18:48.279Z,0.00
2018-04-01T01:19:48.422Z,0.00
2018-04-01T01:20:48.568Z,0.00
2018-04-01T01:21:48.715Z,0.00
2018-04-01T01:22:48.859Z,0.00
2018-04-01T01:23:49.013Z,0.00
2018-04-01T01:24:49.157Z,0.00
2018-04-01T01:25:49.303Z,0.00
2018-04-01T01:26:49.450Z,0.00
2018-04-01T01:27:49.595Z,0.00
2018-04-01T01:28:49.743Z,0.00
2018-04-01T01:29:49.887Z,0.00
2018-04-01T01:30:50.031Z,0.00
2018-04-01T01:31:50.176Z,0.00
2018-04-01T01:32:50.320Z,0.00
2018-04-01T01:33:50.466Z,0.00
2018-04-01T01:34:50.614Z,0.00
2018-04-01T01:35:50.756Z,0.00
2018-04-01T01:36:50.906Z,0.00
2018-04-01T01:37:51.049Z,0.00
2018-04-01T01:38:51.192Z,0.00
2018-04-01T01:39:51.340Z,0.00
2018-04-01T01:40:51.482Z,0.00
2018-04-01T01:41:51.630Z,0.00
2018-04-01T01:42:51.774Z,0.00
2018-04-01T01:43:51.922Z,0.00
2018-04-01T01:44:52.066Z,0.00
2018-04-01T01:45:52.209Z,0.00
2018-04-01T01:46:52.358Z,0.00
2018-04-01T01:47:52.502Z,0.00
2018-04-01T01:48:52.646Z,0.00
2018-04-01T01:49:52.790Z,0.00
2018-04-01T01:50:52.941Z,0.00
2018-04-01T01:51:53.082Z,0.00
2018-04-01T01:52:53.234Z,0.00
2018-04-01T01:53:53.376Z,0.00
2018-04-01T01:54:53.521Z,0.00
2018-04-01T01:55:53.668Z,0.00
2018-04-01T01:56:53.811Z,0.00
2018-04-01T01:57:53.959Z,0.00
2018-04-01T01:58:54.101Z,0.00
2018-04-01T01:59:54.247Z,0.00
2018-04-01T02:00:54.393Z,0.00
2018-04-01T02:01:54.541Z,0.00
2018-04-01T02:02:54.684Z,0.00
2018-04-01T02:03:54.831Z,0.00
2018-04-01T02:04:54.977Z,0.00
2018-04-01T02:05:55.125Z,0.00
2018-04-01T02:06:55.270Z,0.00
2018-04-01T02:07:55.416Z,0.00
2018-04-01T02:08:55.561Z,0.00
2018-04-01T02:09:55.727Z,0.00
2018-04-01T02:10:55.849Z,0.00
2018-04-01T02:11:55.998Z,0.00
2018-04-01T02:12:56.141Z,0.00
2018-04-01T02:13:56.288Z,0.00
2018-04-01T02:14:56.434Z,0.00
2018-04-01T02:15:56.582Z,0.00
2018-04-01T02:16:56.723Z,0.00
2018-04-01T02:17:56.867Z,0.00
2018-04-01T02:18:57.013Z,0.00
2018-04-01T02:19:57.159Z,0.00
2018-04-01T02:20:57.309Z,0.00
2018-04-01T02:21:57.451Z,0.00
2018-04-01T02:22:57.594Z,0.00
2018-04-01T02:23:57.741Z,0.00
2018-04-01T02:24:57.888Z,0.00
2018-04-01T02:25:58.032Z,0.00
2018-04-01T02:26:58.178Z,0.00
2018-04-01T02:27:58.328Z,0.00
2018-04-01T02:28:58.471Z,0.00
2018-04-01T02:29:58.613Z,0.00
2018-04-01T02:30:58.763Z,0.00
2018-04-01T02:31:58.903Z,0.00
2018-04-01T02:32:59.048Z,0.00
2018-04-01T02:33:59.192Z,0.00
2018-04-01T02:34:59.337Z,0.00
2018-04-01T02:35:59.484Z,0.00
2018-04-01T02:36:59.630Z,0.00
2018-04-01T02:37:59.772Z,0.00
2018-04-01T02:38:59.923Z,0.00
2018-04-01T02:40:00.065Z,0.00
2018-04-01T02:41:00.211Z,0.00
2018-04-01T02:42:00.354Z,0.00
2018-04-01T02:43:00.500Z,0.00
2018-04-01T02:44:00.646Z,0.00
2018-04-01T02:45:00.793Z,0.00
2018-04-01T02:46:00.934Z,0.00
2018-04-01T02:47:01.080Z,0.00
2018-04-01T02:48:01.226Z,0.00
2018-04-01T02:49:01.371Z,0.00
2018-04-01T02:50:01.517Z,0.00
2018-04-01T02:51:01.660Z,0.00
2018-04-01T02:52:01.805Z,0.00
2018-04-01T02:53:01.952Z,0.00
2018-04-01T02:54:02.108Z,0.00
2018-04-01T02:55:02.237Z,0.00
2018-04-01T02:56:02.393Z,0.00
2018-04-01T02:57:02.530Z,0.00
2018-04-01T02:58:02.681Z,0.00
2018-04-01T02:59:02.830Z,0.00
2018-04-01T03:00:02.968Z,0.00
2018-04-01T03:01:03.115Z,0.00
2018-04-01T03:02:03.260Z,0.00
2018-04-01T03:03:03.416Z,0.00
2018-04-01T03:04:03.551Z,0.00
2018-04-01T03:05:03.698Z,0.00
2018-04-01T03:06:03.841Z,0.00
2018-04-01T03:07:03.987Z,0.00
2018-04-01T03:08:04.132Z,0.00
2018-04-01T03:09:04.275Z,0.00
2018-04-01T03:10:04.424Z,0.00
2018-04-01T03:11:04.581Z,0.00
2018-04-01T03:12:04.725Z,0.00
2018-04-01T03:13:04.871Z,0.00
2018-04-01T03:14:05.021Z,0.00
2018-04-01T03:15:05.163Z,0.00
2018-04-01T03:16:05.309Z,0.00
2018-04-01T03:17:05.456Z,0.00
2018-04-01T03:18:05.600Z,0.00
2018-04-01T03:19:05.743Z,0.00
2018-04-01T03:20:05.890Z,0.00
2018-04-01T03:21:06.039Z,0.00
2018-04-01T03:22:06.181Z,0.00
2018-04-01T03:23:06.329Z,0.00
2018-04-01T03:24:06.478Z,0.00
2018-04-01T03:25:06.630Z,0.00
2018-04-01T03:26:06.775Z,0.00
2018-04-01T03:27:06.924Z,0.00
2018-04-01T03:28:07.067Z,0.00
2018-04-01T03:29:07.212Z,0.00
2018-04-01T03:30:07.357Z,0.00
2018-04-01T03:31:07.504Z,0.00
2018-04-01T03:32:07.647Z,0.00
2018-04-01T03:33:07.796Z,0.00
2018-04-01T03:34:07.941Z,0.00
2018-04-01T03:35:08.088Z,0.00
2018-04-01T03:36:08.233Z,0.00
2018-04-01T03:37:08.381Z,0.00
2018-04-01T03:38:08.527Z,0.00
2018-04-01T03:39:08.671Z,0.00
2018-04-01T03:40:08.825Z,0.00
2018-04-01T03:41:08.958Z,0.00
2018-04-01T03:42:09.103Z,0.00
2018-04-01T03:43:09.249Z,0.00
2018-04-01T03:44:09.394Z,0.00
2018-04-01T03:45:09.540Z,0.00
2018-04-01T03:46:09.687Z,0.00
2018-04-01T03:47:09.831Z,0.00
2018-04-01T03:48:09.974Z,0.00
2018-04-01T03:49:10.125Z,0.00
2018-04-01T03:50:10.264Z,0.00
2018-04-01T03:51:10.413Z,0.00
2018-04-01T03:52:10.557Z,0.00
2018-04-01T03:53:10.701Z,0.00
2018-04-01T03:54:10.845Z,0.00
2018-04-01T03:55:10.991Z,0.00
2018-04-01T03:56:11.135Z,0.00
2018-04-01T03:57:11.280Z,0.00
2018-04-01T03:58:11.422Z,0.00
2018-04-01T03:59:11.570Z,0.00
2018-04-01T04:00:11.715Z,0.00
2018-04-01T04:01:11.861Z,0.00
2018-04-01T04:02:12.007Z,0.00
2018-04-01T04:03:12.155Z,0.00
2018-04-01T04:04:12.300Z,0.00
2018-04-01T04:05:12.447Z,0.00
2018-04-01T04:06:12.595Z,0.00
2018-04-01T04:07:12.740Z,0.00
2018-04-01T04:08:12.887Z,0.00
2018-04-01T04:09:13.039Z,0.00
2018-04-01T04:10:13.185Z,0.00
2018-04-01T04:11:13.329Z,0.00
2018-04-01T04:12:13.473Z,0.00
2018-04-01T04:13:13.619Z,0.00
2018-04-01T04:14:13.776Z,0.00
2018-04-01T04:15:13.912Z,0.00
2018-04-01T04:16:14.060Z,0.00
2018-04-01T04:17:14.206Z,0.00
2018-04-01T04:18:14.355Z,0.00
2018-04-01T04:19:14.499Z,0.00
2018-04-01T04:20:14.645Z,0.00
2018-04-01T04:21:14.792Z,0.00
2018-04-01T04:22:14.947Z,0.00
2018-04-01T04:23:15.093Z,0.00
2018-04-01T04:24:15.237Z,0.00
2018-04-01T04:25:15.382Z,0.00
2018-04-01T04:26:15.528Z,0.00
2018-04-01T04:27:15.676Z,0.00
2018-04-01T04:28:15.820Z,0.00
2018-04-01T04:29:15.966Z,0.00
2018-04-01T04:30:16.113Z,0.00
2018-04-01T04:31:16.258Z,0.00
2018-04-01T04:32:16.403Z,0.00
2018-04-01T04:33:16.547Z,0.00
2018-04-01T04:34:16.699Z,0.00
2018-04-01T04:35:16.839Z,4.00
2018-04-01T04:36:16.986Z,0.00
2018-04-01T04:37:17.132Z,0.00
2018-04-01T04:38:17.281Z,4.00
2018-04-01T04:39:17.419Z,4.00
2018-04-01T04:40:17.565Z,4.00
2018-04-01T04:41:17.711Z,4.00
2018-04-01T04:42:17.856Z,8.00
2018-04-01T04:43:18.002Z,8.00
2018-04-01T04:44:18.148Z,12.00
2018-04-01T04:45:18.293Z,12.00
2018-04-01T04:46:18.440Z,8.00
2018-04-01T04:47:18.584Z,12.00
2018-04-01T04:48:18.726Z,8.00
2018-04-01T04:49:18.875Z,12.00
2018-04-01T04:50:19.019Z,12.00
2018-04-01T04:51:19.165Z,12.00
2018-04-01T04:52:19.315Z,12.00
2018-04-01T04:53:19.460Z,16.00
2018-04-01T04:54:19.606Z,16.00
2018-04-01T04:55:19.751Z,20.00
2018-04-01T04:56:19.898Z,20.00
2018-04-01T04:57:20.045Z,20.00
2018-04-01T04:58:20.190Z,24.00
2018-04-01T04:59:20.336Z,20.00
2018-04-01T05:00:20.482Z,24.00
2018-04-01T05:01:20.630Z,28.00
2018-04-01T05:02:20.784Z,28.00
2018-04-01T05:03:20.924Z,32.00
2018-04-01T05:04:21.064Z,36.00
2018-04-01T05:05:21.213Z,36.00
2018-04-01T05:06:21.358Z,36.00
2018-04-01T05:07:21.503Z,40.00
2018-04-01T05:08:21.691Z,48.00
2018-04-01T05:09:21.794Z,52.00
2018-04-01T05:10:21.938Z,56.00
2018-04-01T05:11:22.085Z,52.00
2018-04-01T05:12:22.233Z,56.00
2018-04-01T05:13:22.376Z,64.00
2018-04-01T05:14:22.523Z,76.00
2018-04-01T05:15:22.669Z,88.00
2018-04-01T05:16:22.816Z,100.00
2018-04-01T05:17:22.958Z,108.00
2018-04-01T05:18:23.124Z,116.00
2018-04-01T05:19:23.275Z,120.00
2018-04-01T05:20:23.415Z,124.00
2018-04-01T05:21:23.562Z,124.00
2018-04-01T05:22:23.705Z,116.00
2018-04-01T05:23:23.851Z,112.00
2018-04-01T05:24:23.996Z,112.00
2018-04-01T05:25:24.142Z,124.00
2018-04-01T05:26:24.291Z,132.00
2018-04-01T05:27:24.439Z,140.00
2018-04-01T05:28:24.583Z,140.00
2018-04-01T05:29:24.731Z,144.00
2018-04-01T05:30:24.878Z,148.00
2018-04-01T05:31:25.024Z,160.00
2018-04-01T05:32:25.172Z,172.00
2018-04-01T05:33:25.317Z,200.00
2018-04-01T05:34:25.498Z,236.00
2018-04-01T05:35:25.609Z,268.00
2018-04-01T05:36:25.756Z,276.00
2018-04-01T05:37:25.903Z,264.00
2018-04-01T05:38:26.051Z,264.00
2018-04-01T05:39:26.198Z,264.00
2018-04-01T05:40:26.343Z,268.00
2018-04-01T05:41:26.488Z,272.00
2018-04-01T05:42:26.634Z,272.00
2018-04-01T05:43:26.778Z,296.00
2018-04-01T05:44:26.931Z,352.00
2018-04-01T05:45:27.071Z,444.00
2018-04-01T05:46:27.218Z,536.00
2018-04-01T05:47:27.365Z,604.00
2018-04-01T05:48:27.509Z,660.00
2018-04-01T05:49:27.663Z,684.00
2018-04-01T05:50:27.804Z,672.00
2018-04-01T05:51:27.952Z,644.00
2018-04-01T05:52:28.101Z,624.00
2018-04-01T05:53:28.247Z,632.00
2018-04-01T05:54:28.391Z,652.00
2018-04-01T05:55:28.540Z,656.00
2018-04-01T05:56:28.686Z,656.00
2018-04-01T05:57:28.829Z,668.00
2018-04-01T05:58:28.990Z,696.00
2018-04-01T05:59:29.134Z,704.00
2018-04-01T06:00:29.280Z,696.00
2018-04-01T06:01:29.429Z,700.00
2018-04-01T06:02:29.577Z,696.00
2018-04-01T06:03:29.722Z,700.00
2018-04-01T06:04:29.872Z,720.00
2018-04-01T06:05:30.017Z,712.00
2018-04-01T06:06:30.163Z,680.00
2018-04-01T06:07:30.310Z,652.00
2018-04-01T06:08:30.458Z,636.00
2018-04-01T06:09:30.610Z,608.00
2018-04-01T06:10:30.751Z,616.00
2018-04-01T06:11:30.898Z,660.00
2018-04-01T06:12:31.044Z,716.00
2018-04-01T06:13:31.191Z,772.00
2018-04-01T06:14:31.339Z,816.00
2018-04-01T06:15:31.483Z,852.00
2018-04-01T06:16:31.631Z,900.00
2018-04-01T06:17:31.779Z,900.00
2018-04-01T06:18:31.925Z,868.00
2018-04-01T06:19:32.074Z,872.00
2018-04-01T06:20:32.218Z,880.00
2018-04-01T06:21:32.366Z,856.00
2018-04-01T06:22:32.514Z,836.00
2018-04-01T06:23:32.669Z,836.00
2018-04-01T06:24:32.813Z,836.00
2018-04-01T06:25:32.954Z,844.00
2018-04-01T06:26:33.101Z,856.00
2018-04-01T06:27:33.246Z,868.00
2018-04-01T06:28:33.444Z,884.00
2018-04-01T06:29:33.536Z,904.00
2018-04-01T06:30:33.687Z,932.00
2018-04-01T06:31:33.832Z,968.00
2018-04-01T06:32:33.976Z,1008.00
2018-04-01T06:33:34.124Z,1048.00
2018-04-01T06:34:34.270Z,1100.00
2018-04-01T06:35:34.417Z,1160.00
2018-04-01T06:36:34.563Z,1240.00
2018-04-01T06:37:34.716Z,1324.00
2018-04-01T06:38:34.861Z,1408.00
2018-04-01T06:39:35.010Z,1492.00
2018-04-01T06:40:35.160Z,1576.00
2018-04-01T06:41:35.307Z,1640.00
2018-04-01T06:42:35.457Z,1692.00
2018-04-01T06:43:35.602Z,1736.00
2018-04-01T06:44:35.749Z,1784.00
2018-04-01T06:45:35.897Z,1844.00
2018-04-01T06:46:36.041Z,1900.00
2018-04-01T06:47:36.190Z,1944.00
2018-04-01T06:48:36.341Z,1964.00
2018-04-01T06:49:36.489Z,1996.00
2018-04-01T06:50:38.470Z,2032.00
2018-04-01T06:51:36.745Z,2068.00
2018-04-01T06:52:36.884Z,2112.00
2018-04-01T06:53:37.032Z,2160.00
2018-04-01T06:54:37.183Z,2216.00
2018-04-01T06:55:37.324Z,2276.00
2018-04-01T06:56:37.472Z,2332.00
2018-04-01T06:57:37.619Z,2384.00
2018-04-01T06:58:37.767Z,2416.00
2018-04-01T06:59:37.915Z,2444.00
2018-04-01T07:00:38.064Z,2492.00
2018-04-01T07:01:38.210Z,2536.00
2018-04-01T07:02:38.360Z,2580.00
2018-04-01T07:03:38.505Z,2620.00
2018-04-01T07:04:38.740Z,2640.00
2018-04-01T07:05:39.013Z,2668.00
2018-04-01T07:06:38.906Z,2696.00
2018-04-01T07:07:39.047Z,2732.00
2018-04-01T07:08:39.231Z,2748.00
2018-04-01T07:09:39.363Z,2752.00
2018-04-01T07:10:39.511Z,2752.00
2018-04-01T07:11:39.706Z,2756.00
2018-04-01T07:12:39.826Z,2756.00
2018-04-01T07:13:39.970Z,2756.00
2018-04-01T07:14:40.121Z,2776.00
2018-04-01T07:15:40.271Z,2784.00
2018-04-01T07:16:40.417Z,2796.00
2018-04-01T07:17:40.567Z,2812.00
2018-04-01T07:18:40.708Z,2828.00
2018-04-01T07:19:40.858Z,2892.00
2018-04-01T07:20:41.007Z,3016.00
2018-04-01T07:21:41.173Z,3212.00
2018-04-01T07:22:41.303Z,3448.00
2018-04-01T07:23:41.467Z,3712.00
2018-04-01T07:24:41.616Z,3980.00
2018-04-01T07:25:41.746Z,4232.00
2018-04-01T07:26:41.896Z,4464.00
2018-04-01T07:27:42.043Z,4668.00
2018-04-01T07:28:42.190Z,4828.00
2018-04-01T07:29:42.353Z,4980.00
2018-04-01T07:30:42.483Z,5124.00
2018-04-01T07:31:42.637Z,5204.00
2018-04-01T07:32:42.783Z,5264.00
2018-04-01T07:33:42.930Z,5332.00
2018-04-01T07:34:43.079Z,5372.00
2018-04-01T07:35:43.227Z,5440.00
2018-04-01T07:36:43.378Z,5700.00
2018-04-01T07:37:43.520Z,5608.00
2018-04-01T07:38:43.666Z,5804.00
2018-04-01T07:39:43.815Z,6060.00
2018-04-01T07:40:43.960Z,6228.00
2018-04-01T07:41:44.113Z,6012.00
2018-04-01T07:42:44.259Z,6044.00
2018-04-01T07:43:44.408Z,6056.00
2018-04-01T07:44:44.560Z,6256.00
2018-04-01T07:45:44.706Z,6124.00
2018-04-01T07:46:44.854Z,5532.00
2018-04-01T07:47:45.013Z,5212.00
2018-04-01T07:48:45.164Z,4952.00
2018-04-01T07:49:45.314Z,4832.00
2018-04-01T07:50:45.461Z,4696.00
2018-04-01T07:51:45.609Z,4496.00
2018-04-01T07:52:45.761Z,4124.00
2018-04-01T07:53:45.911Z,3976.00
2018-04-01T07:54:46.061Z,4260.00
2018-04-01T07:55:46.209Z,4076.00
2018-04-01T07:56:46.358Z,4232.00
2018-04-01T07:57:46.505Z,4244.00
2018-04-01T07:58:46.654Z,4180.00
2018-04-01T07:59:46.804Z,4292.00
2018-04-01T08:00:46.963Z,4388.00
2018-04-01T08:01:47.106Z,4460.00
2018-04-01T08:02:47.256Z,4732.00
2018-04-01T08:03:47.402Z,4592.00
2018-04-01T08:04:47.555Z,4588.00
2018-04-01T08:05:47.704Z,4628.00
2018-04-01T08:06:47.865Z,4776.00
2018-04-01T08:07:47.999Z,5012.00
2018-04-01T08:08:48.144Z,5352.00
2018-04-01T08:09:48.297Z,5648.00
2018-04-01T08:10:48.459Z,6144.00
2018-04-01T08:11:48.609Z,6292.00
2018-04-01T08:12:48.755Z,6500.00
2018-04-01T08:13:48.905Z,6460.00
2018-04-01T08:14:49.054Z,6248.00
2018-04-01T08:15:49.202Z,6280.00
2018-04-01T08:16:49.352Z,6340.00
2018-04-01T08:17:49.514Z,6476.00
2018-04-01T08:18:49.653Z,6620.00
2018-04-01T08:19:49.802Z,6496.00
2018-04-01T08:20:49.952Z,6364.00
2018-04-01T08:21:50.106Z,6576.00
2018-04-01T08:22:50.253Z,6768.00
2018-04-01T08:23:50.402Z,6732.00
2018-04-01T08:24:50.558Z,6276.00
2018-04-01T08:25:50.707Z,5688.00
2018-04-01T08:26:50.856Z,5492.00
2018-04-01T08:27:51.009Z,5068.00
2018-04-01T08:28:51.157Z,4596.00
2018-04-01T08:29:51.306Z,3940.00
2018-04-01T08:30:51.459Z,3560.00
2018-04-01T08:31:51.606Z,3512.00
2018-04-01T08:32:51.757Z,3876.00
2018-04-01T08:33:51.903Z,4520.00
2018-04-01T08:34:52.059Z,4924.00
2018-04-01T08:35:52.203Z,5048.00
2018-04-01T08:36:52.359Z,5088.00
2018-04-01T08:37:52.512Z,5092.00
2018-04-01T08:38:52.656Z,5240.00
2018-04-01T08:39:52.803Z,5492.00
2018-04-01T08:40:52.957Z,5700.00
2018-04-01T08:41:53.100Z,5684.00
2018-04-01T08:42:53.289Z,5468.00
2018-04-01T08:43:53.401Z,5180.00
2018-04-01T08:44:53.558Z,5476.00
2018-04-01T08:45:53.698Z,6000.00
2018-04-01T08:46:53.850Z,6072.00
2018-04-01T08:47:53.998Z,5948.00
2018-04-01T08:48:54.149Z,5644.00
2018-04-01T08:49:54.299Z,4840.00
2018-04-01T08:50:54.448Z,4056.00
2018-04-01T08:51:54.599Z,3472.00
2018-04-01T08:52:54.750Z,3116.00
2018-04-01T08:53:54.902Z,3048.00
2018-04-01T08:54:55.052Z,3296.00
2018-04-01T08:55:55.202Z,3584.00
2018-04-01T08:56:55.353Z,3608.00
2018-04-01T08:57:55.500Z,3580.00
2018-04-01T08:58:55.651Z,3988.00
2018-04-01T08:59:55.800Z,4776.00
2018-04-01T09:00:55.945Z,5700.00
2018-04-01T09:01:56.100Z,6300.00
2018-04-01T09:02:56.252Z,6476.00
2018-04-01T09:03:56.404Z,6588.00
2018-04-01T09:04:56.552Z,6924.00
2018-04-01T09:05:56.704Z,7668.00
2018-04-01T09:06:56.851Z,8132.00
2018-04-01T09:07:57.002Z,8116.00
2018-04-01T09:08:57.159Z,7748.00
2018-04-01T09:09:57.317Z,7640.00
2018-04-01T09:10:57.465Z,7540.00
2018-04-01T09:11:57.611Z,7484.00
2018-04-01T09:12:57.763Z,7208.00
2018-04-01T09:13:57.913Z,6760.00
2018-04-01T09:14:58.063Z,6360.00
2018-04-01T09:15:58.211Z,6108.00
2018-04-01T09:16:58.414Z,5996.00
2018-04-01T09:17:58.511Z,5920.00
2018-04-01T09:18:58.666Z,5912.00
2018-04-01T09:19:58.814Z,6168.00
2018-04-01T09:20:58.969Z,6512.00
2018-04-01T09:21:59.120Z,6812.00
2018-04-01T09:22:59.269Z,6580.00
2018-04-01T09:23:59.419Z,6536.00
2018-04-01T09:24:59.568Z,6796.00
2018-04-01T09:25:59.722Z,6824.00
2018-04-01T09:26:59.871Z,6356.00
2018-04-01T09:28:00.023Z,5944.00
2018-04-01T09:29:00.171Z,6084.00
2018-04-01T09:30:00.319Z,6748.00
2018-04-01T09:31:00.469Z,7240.00
2018-04-01T09:32:00.620Z,7380.00
2018-04-01T09:33:00.770Z,6248.00
2018-04-01T09:34:00.920Z,5688.00
2018-04-01T09:35:01.072Z,5676.00
2018-04-01T09:36:01.220Z,5384.00
2018-04-01T09:37:01.374Z,5060.00
2018-04-01T09:38:01.519Z,5048.00
2018-04-01T09:39:01.666Z,4656.00
2018-04-01T09:40:01.817Z,4484.00
2018-04-01T09:41:01.969Z,4728.00
2018-04-01T09:42:02.121Z,5772.00
2018-04-01T09:43:02.270Z,7124.00
2018-04-01T09:44:02.429Z,7956.00
2018-04-01T09:45:02.572Z,8784.00
2018-04-01T09:46:02.725Z,9136.00
2018-04-01T09:47:02.875Z,9408.00
2018-04-01T09:48:03.024Z,9404.00
2018-04-01T09:49:03.175Z,9144.00
2018-04-01T09:50:03.326Z,8780.00
2018-04-01T09:51:03.476Z,8780.00
2018-04-01T09:52:03.625Z,8004.00
2018-04-01T09:53:03.783Z,6564.00
2018-04-01T09:54:03.926Z,5528.00
2018-04-01T09:55:04.074Z,5132.00
2018-04-01T09:56:04.229Z,4812.00
2018-04-01T09:57:04.381Z,4468.00
2018-04-01T09:58:04.530Z,4180.00
2018-04-01T09:59:04.679Z,3856.00
2018-04-01T10:00:04.831Z,3692.00
2018-04-01T10:01:04.981Z,3780.00
2018-04-01T10:02:05.135Z,4004.00
2018-04-01T10:03:05.284Z,4272.00
2018-04-01T10:04:05.436Z,4236.00
2018-04-01T10:05:05.581Z,3632.00
2018-04-01T10:06:05.764Z,3164.00
2018-04-01T10:07:05.911Z,2684.00
2018-04-01T10:08:06.060Z,2292.00
2018-04-01T10:09:06.211Z,1972.00
2018-04-01T10:10:06.361Z,1780.00
2018-04-01T10:11:06.518Z,1804.00
2018-04-01T10:12:06.662Z,1940.00
2018-04-01T10:13:06.813Z,2104.00
2018-04-01T10:14:06.963Z,2260.00
2018-04-01T10:15:07.117Z,2464.00
2018-04-01T10:16:07.265Z,2824.00
2018-04-01T10:17:07.415Z,3384.00
2018-04-01T10:18:07.564Z,4040.00
2018-04-01T10:19:07.717Z,4336.00
2018-04-01T10:20:07.941Z,4324.00
2018-04-01T10:21:08.027Z,4632.00
2018-04-01T10:22:08.177Z,5080.00
2018-04-01T10:23:08.329Z,5132.00
2018-04-01T10:24:08.489Z,5172.00
2018-04-01T10:25:08.637Z,5284.00
2018-04-01T10:26:08.786Z,5500.00
2018-04-01T10:27:08.933Z,5504.00
2018-04-01T10:28:09.083Z,5352.00
2018-04-01T10:29:09.229Z,4656.00
2018-04-01T10:30:09.392Z,4348.00
2018-04-01T10:31:09.540Z,4448.00
2018-04-01T10:32:09.689Z,4240.00
2018-04-01T10:33:09.853Z,4200.00
2018-04-01T10:34:09.994Z,4132.00
2018-04-01T10:35:10.144Z,4140.00
2018-04-01T10:36:10.304Z,4368.00
2018-04-01T10:37:10.458Z,4552.00
2018-04-01T10:38:10.607Z,4796.00
2018-04-01T10:39:10.754Z,4744.00
2018-04-01T10:40:10.918Z,4900.00
2018-04-01T10:41:11.065Z,5296.00
2018-04-01T10:42:11.215Z,5252.00
2018-04-01T10:43:11.404Z,5652.00
2018-04-01T10:44:11.555Z,6516.00
2018-04-01T10:45:11.701Z,6980.00
2018-04-01T10:46:11.851Z,7028.00
2018-04-01T10:47:12.002Z,7168.00
2018-04-01T10:48:12.155Z,7736.00
2018-04-01T10:49:12.300Z,7800.00
2018-04-01T10:50:12.452Z,7508.00
2018-04-01T10:51:12.603Z,6876.00
2018-04-01T10:52:12.753Z,6072.00
2018-04-01T10:53:12.902Z,5436.00
2018-04-01T10:54:13.055Z,5312.00
2018-04-01T10:55:13.200Z,5744.00
2018-04-01T10:56:13.354Z,6120.00
2018-04-01T10:57:13.501Z,6136.00
2018-04-01T10:58:13.650Z,5860.00
2018-04-01T10:59:13.800Z,5704.00
2018-04-01T11:00:13.950Z,5576.00
2018-04-01T11:01:14.100Z,5516.00
2018-04-01T11:02:14.250Z,5796.00
2018-04-01T11:03:14.398Z,6164.00
2018-04-01T11:04:14.549Z,6644.00
2018-04-01T11:05:14.701Z,7172.00
2018-04-01T11:06:14.850Z,7424.00
2018-04-01T11:07:14.998Z,7496.00
2018-04-01T11:08:15.151Z,7604.00
2018-04-01T11:09:15.299Z,7684.00
2018-04-01T11:10:15.448Z,7636.00
2018-04-01T11:11:15.597Z,7692.00
2018-04-01T11:12:15.745Z,7640.00
2018-04-01T11:13:15.898Z,7664.00
2018-04-01T11:14:16.049Z,7868.00
2018-04-01T11:15:16.195Z,7444.00
2018-04-01T11:16:16.347Z,6996.00
2018-04-01T11:17:16.496Z,6708.00
2018-04-01T11:18:16.645Z,6260.00
2018-04-01T11:19:16.803Z,5908.00
2018-04-01T11:20:16.945Z,5664.00
2018-04-01T11:21:17.095Z,5708.00
2018-04-01T11:22:17.247Z,6116.00
2018-04-01T11:23:17.397Z,6576.00
2018-04-01T11:24:17.548Z,7064.00
2018-04-01T11:25:17.698Z,7536.00
2018-04-01T11:26:17.847Z,8040.00
2018-04-01T11:27:17.997Z,8048.00
2018-04-01T11:28:18.150Z,7884.00
2018-04-01T11:29:18.299Z,7844.00
2018-04-01T11:30:18.489Z,7792.00
2018-04-01T11:31:18.598Z,7812.00
2018-04-01T11:32:18.750Z,8156.00
2018-04-01T11:33:18.899Z,8208.00
2018-04-01T11:34:19.048Z,7868.00
2018-04-01T11:35:19.198Z,7052.00
2018-04-01T11:36:19.349Z,6336.00
2018-04-01T11:37:19.497Z,6188.00
2018-04-01T11:38:19.646Z,6388.00
2018-04-01T11:39:19.796Z,6408.00
2018-04-01T11:40:19.945Z,6984.00
2018-04-01T11:41:20.109Z,7064.00
2018-04-01T11:42:20.253Z,7252.00
2018-04-01T11:43:20.405Z,7244.00
2018-04-01T11:44:20.556Z,7264.00
2018-04-01T11:45:20.707Z,7544.00
2018-04-01T11:46:20.856Z,7500.00
2018-04-01T11:47:21.015Z,7440.00
2018-04-01T11:48:21.159Z,7416.00
2018-04-01T11:49:21.308Z,7672.00
2018-04-01T11:50:21.458Z,7728.00
2018-04-01T11:51:21.608Z,7716.00
2018-04-01T11:52:21.774Z,7576.00
2018-04-01T11:53:21.928Z,7428.00
2018-04-01T11:54:22.075Z,6972.00
2018-04-01T11:55:22.223Z,6272.00
2018-04-01T11:56:22.374Z,5908.00
2018-04-01T11:57:22.526Z,6320.00
2018-04-01T11:58:22.670Z,7052.00
2018-04-01T11:59:22.820Z,7900.00
2018-04-01T12:00:22.972Z,8880.00
2018-04-01T12:01:23.122Z,9612.00
2018-04-01T12:02:23.269Z,10264.00
2018-04-01T12:03:23.477Z,10928.00
2018-04-01T12:04:23.572Z,11696.00
2018-04-01T12:05:23.726Z,12132.00
2018-04-01T12:06:23.879Z,12272.00
2018-04-01T12:07:24.017Z,12500.00
2018-04-01T12:08:24.168Z,12852.00
2018-04-01T12:09:24.315Z,13168.00
2018-04-01T12:10:24.465Z,13184.00
2018-04-01T12:11:24.617Z,12688.00
2018-04-01T12:12:24.786Z,11808.00
2018-04-01T12:13:24.909Z,11132.00
2018-04-01T12:14:25.056Z,10568.00
2018-04-01T12:15:25.207Z,9980.00
2018-04-01T12:16:25.358Z,9028.00
2018-04-01T12:17:25.509Z,7816.00
2018-04-01T12:18:25.660Z,7124.00
2018-04-01T12:19:25.810Z,7104.00
2018-04-01T12:20:25.961Z,6780.00
2018-04-01T12:21:26.111Z,6624.00
2018-04-01T12:22:26.261Z,6660.00
2018-04-01T12:23:26.414Z,6988.00
2018-04-01T12:24:26.571Z,7212.00
2018-04-01T12:25:26.714Z,7828.00
2018-04-01T12:26:26.870Z,8252.00
2018-04-01T12:27:27.022Z,8612.00
2018-04-01T12:28:27.170Z,9116.00
2018-04-01T12:29:27.320Z,9584.00
2018-04-01T12:30:27.471Z,9728.00
2018-04-01T12:31:27.621Z,9892.00
2018-04-01T12:32:27.772Z,9388.00
2018-04-01T12:33:27.924Z,8940.00
2018-04-01T12:34:28.071Z,8800.00
2018-04-01T12:35:28.220Z,8088.00
2018-04-01T12:36:28.370Z,7616.00
2018-04-01T12:37:28.529Z,7296.00